Time;durP1;ratioP1;P1;durP2;ratioP2;P2;SDS_P1;SDS_P2;PMS_P1;PMS_P2;Temp;Humidity;BMP_temperature;BMP_pressure;BME280_temperature;BME280_humidity;BME280_pressure;Samples;Min_cycle;Max_cycle;Signal;HPM_P1;HPM_P2
2021/11/21 00:00:00;;;;;;;31.40;20.38;;;7.90;99.90;;;7.22;100.00;101587.59;4105008;28;20059;-76
2021/11/21 00:02:02;;;;;;;35.95;21.38;;;7.80;99.90;;;7.10;100.00;101575.38;4087773;29;20131;-76
2021/11/21 00:04:03;;;;;;;37.03;22.95;;;7.80;99.90;;;7.10;100.00;101580.63;4118757;28;20027;-77
2021/11/21 00:06:04;;;;;;;35.13;21.33;;;7.80;99.90;;;6.96;100.00;101570.31;4104720;28;20031;-77
2021/11/21 00:08:05;;;;;;;34.42;21.98;;;7.80;99.90;;;7.10;100.00;101568.34;4104894;28;20058;-76
2021/11/21 00:10:07;;;;;;;34.05;21.50;;;7.80;99.90;;;7.15;100.00;101570.63;4103507;29;20130;-77
2021/11/21 00:12:08;;;;;;;33.88;21.60;;;7.80;99.90;;;7.22;100.00;101574.47;4103630;29;20086;-77
2021/11/21 00:14:09;;;;;;;34.75;21.83;;;7.80;99.90;;;7.19;100.00;101559.81;4104664;28;20609;-77
2021/11/21 00:16:10;;;;;;;34.58;22.10;;;7.80;99.90;;;7.20;100.00;101558.00;4103668;29;20451;-77
2021/11/21 00:18:12;;;;;;;37.08;21.83;;;7.80;99.90;;;7.35;100.00;101561.28;4103527;28;20042;-76
2021/11/21 00:20:16;;;;;;;36.80;21.00;;;7.80;99.90;;;7.29;100.00;101556.50;4103576;29;20488;-77
2021/11/21 00:22:17;;;;;;;35.13;20.45;;;7.90;99.90;;;7.21;100.00;101562.28;4104628;28;20024;-77
2021/11/21 00:24:18;;;;;;;34.63;20.92;;;7.80;99.90;;;7.26;100.00;101562.78;4103369;29;20075;-76
2021/11/21 00:26:20;;;;;;;35.67;21.00;;;7.80;99.90;;;7.24;100.00;101567.31;4103350;29;20577;-76
2021/11/21 00:28:21;;;;;;;43.17;24.30;;;7.80;99.90;;;7.14;100.00;101561.91;4104642;28;20451;-76
2021/11/21 00:30:22;;;;;;;38.95;23.00;;;7.80;99.90;;;7.09;100.00;101556.19;4104286;28;20023;-76
2021/11/21 00:32:23;;;;;;;37.20;22.95;;;7.70;99.90;;;7.07;100.00;101549.38;4104665;28;20474;-76
2021/11/21 00:34:24;;;;;;;38.15;22.58;;;7.80;99.90;;;7.18;100.00;101562.53;4103318;29;20087;-76
2021/11/21 00:36:25;;;;;;;43.35;24.98;;;7.80;99.90;;;7.12;100.00;101560.34;4104532;28;20396;-76
2021/11/21 00:38:26;;;;;;;40.70;24.27;;;7.80;99.90;;;6.83;100.00;101548.56;4104390;28;20023;-76
2021/11/21 00:40:27;;;;;;;41.10;23.60;;;7.80;99.90;;;6.99;100.00;101533.38;4104320;28;20042;-76
2021/11/21 00:42:28;;;;;;;43.10;23.27;;;7.70;99.90;;;6.90;100.00;101537.50;4103119;29;20041;-76
2021/11/21 00:44:29;;;;;;;37.72;22.65;;;7.70;99.90;;;7.35;100.00;101543.72;4104401;29;20500;-76
2021/11/21 00:46:30;;;;;;;42.08;24.50;;;7.70;99.90;;;7.01;100.00;101544.59;4102890;29;20059;-76
2021/11/21 00:48:31;;;;;;;44.10;22.77;;;7.80;99.90;;;6.90;100.00;101539.31;4103213;29;20549;-77
2021/11/21 00:50:33;;;;;;;44.22;24.20;;;7.70;99.90;;;6.90;100.00;101544.53;4104346;28;20106;-76
2021/11/21 00:52:35;;;;;;;34.92;22.02;;;7.70;99.90;;;7.21;100.00;101533.44;4102974;28;20031;-77
2021/11/21 00:56:39;;;;;;;39.90;23.23;;;7.80;99.90;;;7.33;100.00;101527.25;4104438;28;20090;-76
2021/11/21 00:58:40;;;;;;;40.38;24.40;;;7.80;99.90;;;7.18;100.00;101542.38;4104210;28;20035;-76
2021/11/21 01:00:46;;;;;;;40.88;23.88;;;7.90;99.90;;;7.28;100.00;101534.66;4102948;29;20118;-76
2021/11/21 01:02:46;;;;;;;40.13;23.73;;;7.80;99.90;;;7.30;100.00;101538.00;4104076;28;20387;-76
2021/11/21 01:04:47;;;;;;;45.35;23.65;;;7.80;99.90;;;7.10;100.00;101530.78;4103001;29;20042;-77
2021/11/21 01:06:48;;;;;;;41.72;22.45;;;7.80;99.90;;;7.15;100.00;101533.88;4104188;28;20031;-76
2021/11/21 01:08:50;;;;;;;38.67;22.35;;;7.80;99.90;;;7.34;100.00;101528.09;4102903;29;20086;-76
2021/11/21 01:10:59;;;;;;;41.00;23.67;;;7.80;99.90;;;7.35;100.00;101537.66;4103707;28;20031;-76
2021/11/21 01:13:00;;;;;;;38.22;22.10;;;7.90;99.90;;;7.13;100.00;101533.19;4104010;28;20043;-76
2021/11/21 01:15:05;;;;;;;38.42;22.08;;;7.90;99.90;;;7.18;100.00;101528.41;4102550;28;20027;-76
2021/11/21 01:17:06;;;;;;;;;;;7.80;99.90;;;7.12;100.00;101524.47;4103219;29;20042;-76
2021/11/21 01:19:07;;;;;;;39.17;22.60;;;7.80;99.90;;;7.37;100.00;101522.63;4102691;29;19917;-76
2021/11/21 01:21:08;;;;;;;38.10;22.25;;;7.90;99.90;;;7.27;100.00;101516.38;4102785;29;20027;-76
2021/11/21 01:23:12;;;;;;;37.08;21.88;;;7.90;99.90;;;7.08;100.00;101506.44;4102428;29;20421;-76
2021/11/21 01:25:14;;;;;;;40.92;22.63;;;7.80;99.90;;;6.96;100.00;101502.94;4102472;29;20031;-77
2021/11/21 01:27:15;;;;;;;36.92;21.90;;;7.70;99.90;;;7.02;100.00;101506.88;4102665;29;20066;-76
2021/11/21 01:29:16;;;;;;;36.35;22.00;;;7.70;99.90;;;7.05;100.00;101497.00;4102719;29;20027;-76
2021/11/21 01:31:17;;;;;;;34.17;20.60;;;7.70;99.90;;;6.97;100.00;101490.66;4102618;29;20514;-77
2021/11/21 01:33:19;;;;;;;38.80;21.35;;;7.70;99.90;;;7.04;100.00;101489.25;4103713;28;20035;-76
2021/11/21 01:35:20;;;;;;;41.75;21.67;;;7.60;99.90;;;7.24;100.00;101489.44;4102322;29;20562;-77
2021/11/21 01:37:21;;;;;;;38.92;21.73;;;7.70;99.90;;;7.08;100.00;101480.19;4103774;28;20424;-76
2021/11/21 01:39:22;;;;;;;34.67;21.02;;;7.70;99.90;;;7.13;100.00;101491.19;4103477;28;20111;-76
2021/11/21 01:41:23;;;;;;;39.58;22.55;;;7.70;99.90;;;6.87;100.00;101481.84;4102510;29;20035;-76
2021/11/21 01:43:24;;;;;;;36.22;20.15;;;7.60;99.90;;;7.24;100.00;101484.19;4103565;28;20067;-77
2021/11/21 01:45:26;;;;;;;37.65;21.40;;;7.70;99.90;;;7.30;100.00;101477.63;4102257;29;20493;-76
2021/11/21 01:47:27;;;;;;;41.47;21.80;;;7.70;99.90;;;7.33;100.00;101484.44;4102532;29;20055;-76
2021/11/21 01:49:28;;;;;;;34.13;20.95;;;7.70;99.90;;;7.23;100.00;101479.03;4098757;29;20110;-77
2021/11/21 01:51:29;;;;;;;37.67;21.85;;;7.70;99.90;;;7.10;100.00;101480.94;4103509;28;20050;-76
2021/11/21 01:53:30;;;;;;;36.97;21.02;;;7.60;99.90;;;7.03;100.00;101482.34;4106365;28;20113;-76
2021/11/21 01:55:32;;;;;;;36.95;23.00;;;7.50;99.90;;;6.95;100.00;101474.22;4103522;28;20074;-76
2021/11/21 01:57:34;;;;;;;36.70;22.73;;;7.50;99.90;;;6.90;100.00;101478.97;4102490;29;20114;-76
2021/11/21 01:59:35;;;;;;;36.10;21.45;;;7.50;99.90;;;6.87;100.00;101482.63;4102309;29;20019;-76
2021/11/21 02:01:36;;;;;;;33.42;19.52;;;7.40;99.90;;;6.78;100.00;101472.03;4102492;29;20023;-76
2021/11/21 02:03:37;;;;;;;39.20;22.65;;;7.40;99.90;;;6.84;100.00;101475.00;4103659;28;20031;-76
2021/11/21 02:05:39;;;;;;;37.80;21.23;;;7.40;99.90;;;6.78;100.00;101480.69;4102376;29;20027;-76
2021/11/21 02:07:42;;;;;;;37.53;20.58;;;7.40;99.90;;;6.72;100.00;101467.22;4102236;29;20110;-76
2021/11/21 02:09:43;;;;;;;35.05;21.17;;;7.30;99.90;;;6.67;100.00;101464.94;4102190;29;20023;-76
2021/11/21 02:11:44;;;;;;;42.60;22.90;;;7.30;99.90;;;6.69;100.00;101463.88;4103511;28;20395;-76
2021/11/21 02:13:47;;;;;;;35.30;20.00;;;7.30;99.90;;;6.65;100.00;101472.09;4103424;28;20391;-76
2021/11/21 02:15:48;;;;;;;38.75;21.92;;;7.30;99.90;;;6.63;100.00;101464.31;4102335;28;20479;-76
2021/11/21 02:17:50;;;;;;;44.30;23.95;;;7.30;99.90;;;6.67;100.00;101465.78;4102383;29;20062;-76
2021/11/21 02:19:51;;;;;;;39.67;21.80;;;7.30;99.90;;;6.67;100.00;101464.94;4102271;29;20043;-77
2021/11/21 02:21:52;;;;;;;38.80;20.95;;;7.30;99.90;;;6.65;100.00;101462.44;4102178;29;20023;-76
2021/11/21 02:23:54;;;;;;;38.17;22.17;;;7.20;99.90;;;6.62;100.00;101453.97;4103260;28;20031;-76
2021/11/21 02:25:55;;;;;;;35.03;20.13;;;7.10;99.90;;;6.51;100.00;101452.13;4102093;28;20110;-77
2021/11/21 02:27:56;;;;;;;38.13;22.33;;;7.10;99.90;;;6.57;100.00;101456.09;4105256;29;20035;-77
2021/11/21 02:29:59;;;;;;;35.53;20.88;;;7.10;99.90;;;6.50;100.00;101455.69;4105263;29;20143;-77
2021/11/21 02:32:00;;;;;;;37.40;21.20;;;6.50;99.90;;;6.52;100.00;101460.81;4105198;28;20050;-76
2021/11/21 02:34:01;;;;;;;36.75;20.63;;;7.10;99.90;;;6.27;100.00;101451.31;4105163;29;20055;-76
2021/11/21 02:36:05;;;;;;;37.40;20.25;;;7.10;99.90;;;6.43;100.00;101449.22;4105215;29;20455;-76
2021/11/21 02:38:09;;;;;;;34.65;21.58;;;7.00;99.90;;;6.60;100.00;101451.44;4106317;28;20391;-76
2021/11/21 02:40:11;;;;;;;38.17;22.33;;;7.10;99.90;;;6.67;100.00;101454.44;4104813;29;20038;-76
2021/11/21 02:42:45;;;;;;;40.83;21.48;;;7.20;99.90;;;6.55;100.00;101453.56;4105053;29;20050;-76
2021/11/21 02:44:46;;;;;;;43.90;22.95;;;7.20;99.90;;;6.52;100.00;101463.44;4073795;29;20074;-76
2021/11/21 02:46:47;;;;;;;48.70;26.00;;;7.20;99.90;;;6.67;100.00;101464.94;4105953;28;20510;-76
2021/11/21 02:48:48;;;;;;;37.88;21.73;;;7.30;99.90;;;6.71;100.00;101455.91;4088981;29;20024;-76
2021/11/21 02:50:50;;;;;;;43.42;22.58;;;7.30;99.90;;;6.72;100.00;101454.13;4104910;29;20058;-76
2021/11/21 02:52:53;;;;;;;44.85;22.80;;;7.30;99.90;;;6.91;100.00;101451.78;4104734;29;20154;-76
2021/11/21 02:54:57;;;;;;;45.05;22.73;;;7.40;99.90;;;6.96;100.00;101444.44;4105375;28;20067;-76
2021/11/21 02:56:58;;;;;;;43.10;23.70;;;7.50;99.90;;;6.99;100.00;101445.00;4106237;28;20095;-76
2021/11/21 02:58:59;;;;;;;41.80;23.75;;;7.50;99.90;;;6.91;100.00;101446.53;4104771;29;20038;-76
2021/11/21 03:01:09;;;;;;;39.58;20.95;;;7.50;99.90;;;6.93;100.00;101434.16;4105887;28;20550;-76
2021/11/21 03:03:12;;;;;;;40.13;20.58;;;7.50;99.90;;;6.87;100.00;101434.63;4105897;28;20372;-75
2021/11/21 03:05:15;;;;;;;36.58;20.27;;;7.50;99.90;;;6.83;100.00;101434.00;4104721;29;20063;-76
2021/11/21 03:07:17;;;;;;;43.28;22.85;;;7.50;99.90;;;6.93;100.00;101434.97;4104626;29;20537;-76
2021/11/21 03:09:23;;;;;;;35.28;19.65;;;7.50;99.90;;;6.89;100.00;101432.72;4104391;29;20027;-76
2021/11/21 03:11:27;;;;;;;38.00;20.90;;;7.50;99.90;;;6.92;100.00;101435.09;4104697;29;20039;-76
2021/11/21 03:13:28;;;;;;;;;;;7.60;99.90;;;6.81;100.00;101429.84;4106225;28;20122;-76
2021/11/21 03:15:29;;;;;;;41.35;23.27;;;7.60;99.90;;;6.77;100.00;101425.75;4104553;29;19910;-76
2021/11/21 03:17:29;;;;;;;43.03;21.92;;;7.50;99.90;;;6.81;100.00;101425.41;4120334;28;20127;-76
2021/11/21 03:19:31;;;;;;;38.40;21.27;;;7.50;99.90;;;6.80;100.00;101423.75;4104633;29;20483;-76
2021/11/21 03:21:32;;;;;;;41.05;20.90;;;7.50;99.90;;;6.92;100.00;101432.47;4104622;29;20043;-76
2021/11/21 03:23:33;;;;;;;33.53;20.38;;;7.60;99.90;;;6.97;100.00;101431.19;4105644;28;20027;-76
2021/11/21 03:25:35;;;;;;;39.25;20.85;;;7.60;99.90;;;6.99;100.00;101423.22;4104156;28;20090;-76
2021/11/21 03:27:36;;;;;;;36.28;20.90;;;7.70;99.90;;;7.12;100.00;101423.94;4105631;28;20062;-76
2021/11/21 03:29:37;;;;;;;36.72;20.80;;;7.70;99.90;;;7.05;100.00;101420.94;4104478;29;20027;-77
2021/11/21 03:31:38;;;;;;;35.58;19.98;;;7.70;99.90;;;6.99;100.00;101423.22;4105598;28;20035;-76
2021/11/21 03:33:39;;;;;;;36.33;19.75;;;7.70;99.90;;;7.06;100.00;101421.78;4105512;28;20090;-76
2021/11/21 03:35:40;;;;;;;35.90;19.55;;;7.70;99.90;;;7.09;100.00;101417.13;4105569;28;20506;-76
2021/11/21 03:37:42;;;;;;;33.10;19.48;;;7.70;99.90;;;7.12;100.00;101403.78;4104140;28;20031;-76
2021/11/21 03:39:43;;;;;;;36.15;19.48;;;7.80;99.90;;;7.29;100.00;101414.78;4103974;29;20110;-76
2021/11/21 03:41:44;;;;;;;37.83;20.23;;;7.70;99.90;;;7.25;100.00;101414.19;4105284;28;20028;-76
2021/11/21 03:43:45;;;;;;;33.03;18.67;;;7.80;99.90;;;7.18;100.00;101407.72;4104261;29;20027;-76
2021/11/21 03:45:46;;;;;;;32.55;19.88;;;7.90;99.90;;;7.09;100.00;101395.31;4103939;29;20073;-76
2021/11/21 03:47:48;;;;;;;34.75;18.83;;;7.80;99.90;;;7.22;100.00;101403.91;4105281;29;20074;-76
2021/11/21 03:49:49;;;;;;;34.65;18.60;;;7.90;99.90;;;7.30;100.00;101408.56;4104052;29;20041;-76
2021/11/21 03:51:50;;;;;;;33.30;18.30;;;7.90;99.90;;;7.29;100.00;101405.09;4105343;28;20515;-76
2021/11/21 03:53:51;;;;;;;32.08;18.42;;;7.90;99.90;;;7.31;100.00;101405.84;4105084;28;20051;-76
2021/11/21 03:55:52;;;;;;;32.58;19.45;;;7.90;99.90;;;7.32;100.00;101398.81;4103824;29;20066;-76
2021/11/21 03:57:54;;;;;;;32.33;19.42;;;7.90;99.90;;;7.28;100.00;101398.19;4105022;28;20024;-76
2021/11/21 03:59:55;;;;;;;33.17;18.63;;;7.90;99.90;;;7.23;100.00;101393.28;4088031;29;20035;-76
2021/11/21 04:01:58;;;;;;;33.53;20.00;;;7.90;99.90;;;7.21;100.00;101397.84;4103977;29;20388;-76
2021/11/21 04:03:59;;;;;;;33.33;18.48;;;7.90;99.90;;;7.25;100.00;101387.94;4105131;28;20110;-76
2021/11/21 04:06:00;;;;;;;35.42;20.70;;;8.00;99.90;;;7.27;100.00;101391.28;4104847;28;20035;-76
2021/11/21 04:08:01;;;;;;;31.70;18.40;;;7.90;99.90;;;7.32;100.00;101394.34;4105024;28;20403;-76
2021/11/21 04:10:04;;;;;;;32.20;17.67;;;8.00;99.90;;;7.42;100.00;101392.69;4103593;29;20410;-76
2021/11/21 04:12:06;;;;;;;29.42;18.85;;;8.10;99.90;;;7.43;100.00;101396.16;4104928;28;20055;-76
2021/11/21 04:14:07;;;;;;;33.35;19.52;;;8.00;99.90;;;7.46;100.00;101381.03;4103619;29;20054;-76
2021/11/21 04:16:08;;;;;;;33.10;17.38;;;8.00;99.90;;;7.47;100.00;101377.41;4104948;28;20082;-76
2021/11/21 04:18:09;;;;;;;30.30;16.80;;;8.10;99.90;;;7.37;100.00;101381.75;4103784;29;20086;-76
2021/11/21 04:20:12;;;;;;;28.42;17.05;;;8.10;99.90;;;7.30;100.00;101375.28;4103667;29;20103;-76
2021/11/21 04:22:13;;;;;;;32.13;19.17;;;8.00;99.90;;;7.32;100.00;101364.69;4103450;28;20034;-76
2021/11/21 04:24:15;;;;;;;34.70;19.88;;;8.10;99.90;;;7.60;100.00;101366.78;4103469;29;20035;-76
2021/11/21 04:26:16;;;;;;;33.60;18.95;;;8.10;99.90;;;7.53;100.00;101363.81;4104736;28;20027;-76
2021/11/21 04:28:17;;;;;;;32.83;19.08;;;8.10;99.90;;;7.46;100.00;101365.28;4103537;29;20027;-76
2021/11/21 04:30:19;;;;;;;36.40;20.33;;;8.10;99.90;;;7.50;100.00;101364.06;4087409;29;20440;-76
2021/11/21 04:32:20;;;;;;;35.88;19.33;;;8.10;99.90;;;7.42;100.00;101369.06;4103717;29;20595;-76
2021/11/21 04:34:21;;;;;;;33.05;19.35;;;8.10;99.90;;;7.54;100.00;101372.53;4103408;29;20043;-76
2021/11/21 04:36:23;;;;;;;34.50;20.45;;;8.10;99.90;;;7.52;100.00;101375.28;4103388;29;20026;-76
2021/11/21 04:38:24;;;;;;;33.45;19.65;;;8.10;99.90;;;7.52;100.00;101374.44;4103099;28;20104;-76
2021/11/21 04:40:25;;;;;;;32.28;18.58;;;8.10;99.90;;;7.39;100.00;101371.09;4103221;29;20075;-76
2021/11/21 04:42:26;;;;;;;31.38;18.00;;;8.10;99.90;;;7.30;100.00;101379.69;4103336;29;20027;-76
2021/11/21 04:44:27;;;;;;;35.88;20.27;;;8.10;99.90;;;7.34;100.00;101381.97;4104479;28;20062;-76
2021/11/21 04:46:29;;;;;;;32.53;19.52;;;8.10;99.90;;;7.39;100.00;101373.72;4102909;29;20400;-76
2021/11/21 04:48:30;;;;;;;30.30;18.50;;;8.10;99.90;;;7.39;100.00;101369.31;4092056;28;20139;-76
2021/11/21 04:50:31;;;;;;;38.78;21.05;;;8.10;99.90;;;7.38;100.00;101372.88;4102780;29;20166;-76
2021/11/21 04:52:32;;;;;;;35.30;19.55;;;8.10;99.90;;;7.44;100.00;101366.31;4103164;29;20558;-76
2021/11/21 04:54:33;;;;;;;37.00;18.70;;;8.10;99.90;;;7.52;100.00;101366.56;4086756;29;20042;-76
2021/11/21 04:56:34;;;;;;;32.60;20.00;;;8.10;99.90;;;7.51;100.00;101363.09;4119132;28;20026;-76
2021/11/21 04:58:35;;;;;;;34.30;20.15;;;8.10;99.90;;;7.48;100.00;101352.84;4103321;29;20038;-76
2021/11/21 05:00:36;;;;;;;31.70;19.05;;;8.10;99.90;;;7.55;100.00;101358.47;4104238;28;20026;-76
2021/11/21 05:02:40;;;;;;;32.97;19.35;;;8.10;99.90;;;7.51;100.00;101349.97;4102969;29;20027;-76
2021/11/21 05:04:41;;;;;;;;;;;8.10;99.90;;;7.37;100.00;101341.53;4104634;28;20110;-76
2021/11/21 05:06:42;;;;;;;32.65;19.33;;;8.10;99.90;;;7.33;100.00;101340.09;4104127;29;20293;-76
2021/11/21 05:08:43;;;;;;;37.10;19.75;;;8.10;99.90;;;7.32;100.00;101349.75;4102880;29;20031;-76
2021/11/21 05:10:44;;;;;;;32.28;18.25;;;8.10;99.90;;;7.44;100.00;101348.78;4103727;28;20062;-76
2021/11/21 05:12:45;;;;;;;31.52;18.05;;;8.10;99.90;;;7.39;100.00;101348.31;4104005;28;20031;-76
2021/11/21 05:14:46;;;;;;;35.65;20.05;;;8.10;99.90;;;7.47;100.00;101351.16;4102904;28;20035;-76
2021/11/21 05:16:48;;;;;;;29.98;19.55;;;8.10;99.90;;;7.52;100.00;101349.03;4102735;29;20042;-76
2021/11/21 05:18:49;;;;;;;31.85;18.25;;;8.10;99.90;;;7.53;100.00;101361.19;4103957;28;20390;-76
2021/11/21 05:20:50;;;;;;;31.52;18.25;;;8.20;99.90;;;7.50;100.00;101358.81;4103715;28;20038;-76
2021/11/21 05:22:51;;;;;;;33.30;19.40;;;8.10;99.90;;;7.49;100.00;101356.31;4103924;28;20062;-76
2021/11/21 05:24:53;;;;;;;32.50;19.00;;;8.10;99.90;;;7.38;100.00;101348.47;4103593;28;20118;-76
2021/11/21 05:26:54;;;;;;;31.65;18.35;;;8.10;99.90;;;7.37;100.00;101342.38;4102641;29;20070;-76
2021/11/21 05:28:55;;;;;;;29.45;16.45;;;8.10;99.90;;;7.38;100.00;101336.16;4103887;28;20035;-76
2021/11/21 05:30:56;;;;;;;34.25;20.02;;;8.10;99.90;;;7.37;100.00;101342.38;4103739;28;20070;-76
2021/11/21 05:32:57;;;;;;;36.42;18.98;;;8.10;99.90;;;7.45;100.00;101339.13;4102644;29;20035;-76
2021/11/21 05:34:58;;;;;;;35.42;19.42;;;8.10;99.90;;;7.44;100.00;101338.28;4103627;28;20067;-76
2021/11/21 05:36:59;;;;;;;31.38;18.92;;;8.10;99.90;;;7.49;100.00;101341.41;4102585;29;20102;-76
2021/11/21 05:39:00;;;;;;;28.83;17.92;;;8.10;99.90;;;7.55;100.00;101342.69;4103549;28;20019;-76
2021/11/21 05:41:01;;;;;;;29.42;18.20;;;8.20;99.90;;;7.69;100.00;101327.50;4103661;28;20031;-76
2021/11/21 05:43:02;;;;;;;28.55;16.88;;;8.20;99.90;;;7.82;100.00;101322.13;4103673;28;20023;-76
2021/11/21 05:45:04;;;;;;;31.33;17.33;;;8.30;99.90;;;7.63;100.00;101325.38;4102343;29;20101;-76
2021/11/21 05:47:06;;;;;;;31.60;18.90;;;8.20;99.90;;;7.49;100.00;101320.41;4102362;29;20059;-76
2021/11/21 05:49:07;;;;;;;27.10;17.27;;;8.20;99.90;;;7.38;100.00;101320.41;4094747;29;20106;-76
2021/11/21 05:51:08;;;;;;;31.90;17.27;;;8.20;99.90;;;7.46;100.00;101323.28;4103616;28;20038;-76
2021/11/21 05:53:09;;;;;;;28.63;17.33;;;8.20;99.90;;;7.48;100.00;101323.97;4103303;28;20066;-76
2021/11/21 05:55:12;;;;;;;32.72;18.85;;;8.20;99.90;;;7.52;100.00;101321.94;4103297;28;20042;-76
2021/11/21 05:57:13;;;;;;;33.70;18.55;;;8.30;99.90;;;7.61;100.00;101331.72;4102357;29;20027;-76
2021/11/21 05:59:14;;;;;;;27.00;16.48;;;8.20;99.90;;;7.64;100.00;101327.06;4103496;28;20031;-76
2021/11/21 06:01:17;;;;;;;29.95;18.15;;;8.30;99.90;;;7.59;100.00;101321.31;4103850;28;20030;-76
2021/11/21 06:03:19;;;;;;;32.38;18.20;;;8.30;99.90;;;7.49;100.00;101323.03;4105722;29;20032;-76
2021/11/21 06:05:21;;;;;;;31.08;18.05;;;8.20;99.90;;;7.55;100.00;101317.28;4105619;29;20039;-76
2021/11/21 06:07:22;;;;;;;36.20;21.05;;;8.20;99.90;;;7.55;100.00;101317.28;4089614;29;20126;-76
2021/11/21 06:09:22;;;;;;;31.63;19.05;;;8.30;99.90;;;7.60;100.00;101320.38;4106337;29;20046;-76
2021/11/21 06:11:23;;;;;;;35.20;19.70;;;8.50;99.90;;;7.66;100.00;101325.13;4106676;28;20521;-76
2021/11/21 06:13:25;;;;;;;33.05;18.98;;;8.30;99.90;;;7.67;100.00;101325.97;4105417;29;20035;-76
2021/11/21 06:15:27;;;;;;;31.67;18.67;;;8.30;99.90;;;7.66;100.00;101314.63;4106559;28;20054;-76
2021/11/21 06:17:27;;;;;;;34.85;20.27;;;8.30;99.90;;;7.58;100.00;101311.78;4105345;29;20035;-76
2021/11/21 06:19:28;;;;;;;30.25;18.67;;;8.40;99.90;;;7.67;100.00;101313.69;4106607;28;20491;-76
2021/11/21 06:21:30;;;;;;;35.65;19.17;;;8.30;99.90;;;7.77;100.00;101322.47;4106591;28;20035;-76
2021/11/21 06:23:33;;;;;;;29.42;17.40;;;8.40;99.90;;;7.67;100.00;101311.06;4105328;29;20066;-76
2021/11/21 06:25:35;;;;;;;29.10;16.50;;;8.30;99.90;;;7.72;100.00;101316.75;4106176;28;20403;-76
2021/11/21 06:27:37;;;;;;;29.77;16.90;;;8.30;99.90;;;7.69;100.00;101314.38;4105524;29;20112;-76
2021/11/21 06:29:38;;;;;;;28.30;17.23;;;8.30;99.90;;;7.69;100.00;101324.88;4105307;29;20031;-76
2021/11/21 06:31:40;;;;;;;34.25;17.25;;;8.30;99.90;;;7.64;100.00;101313.94;4105262;29;20115;-76
2021/11/21 06:33:41;;;;;;;30.65;16.65;;;8.30;99.90;;;7.73;100.00;101309.72;4104844;29;20035;-76
2021/11/21 06:35:42;;;;;;;24.73;15.50;;;8.30;99.90;;;7.75;100.00;101307.81;4105194;29;20023;-76
2021/11/21 06:37:44;;;;;;;27.08;15.95;;;8.40;99.90;;;7.74;100.00;101306.97;4105189;29;20619;-76
2021/11/21 06:39:46;;;;;;;26.08;15.95;;;8.40;99.90;;;7.73;100.00;101300.06;4104901;29;20470;-75
2021/11/21 06:41:47;;;;;;;27.83;17.10;;;8.40;99.90;;;7.77;100.00;101305.88;4104986;29;20411;-76
2021/11/21 06:43:47;;;;;;;23.38;14.38;;;8.40;99.90;;;7.74;100.00;101306.13;4105116;29;20550;-75
2021/11/21 06:45:48;;;;;;;24.40;15.63;;;8.40;99.90;;;7.70;100.00;101299.47;4104734;28;20132;-76
2021/11/21 06:47:50;;;;;;;22.27;14.85;;;8.40;99.90;;;7.71;100.00;101291.44;4106081;29;20035;-75
2021/11/21 06:49:51;;;;;;;28.02;16.85;;;8.40;99.90;;;7.74;100.00;101293.00;4104794;29;20122;-75
2021/11/21 06:51:52;;;;;;;25.27;16.25;;;8.40;99.90;;;7.79;100.00;101291.66;4106050;28;20023;-76
2021/11/21 06:53:54;;;;;;;24.58;17.20;;;8.40;99.90;;;7.89;100.00;101298.78;4104621;29;20492;-75
2021/11/21 06:55:55;;;;;;;25.38;16.40;;;8.50;99.90;;;7.89;100.00;101301.41;4104793;29;20027;-76
2021/11/21 06:57:55;;;;;;;24.83;14.98;;;8.50;99.90;;;7.85;100.00;101302.63;4104652;29;20535;-76
2021/11/21 06:59:57;;;;;;;24.67;15.38;;;8.50;99.90;;;7.82;100.00;101302.88;4104838;29;20071;-75
2021/11/21 07:01:58;;;;;;;29.23;15.85;;;8.50;99.90;;;8.09;100.00;101304.09;4104815;29;20031;-75
2021/11/21 07:03:58;;;;;;;23.75;14.40;;;8.50;99.90;;;8.02;100.00;101304.72;4105974;28;20061;-75
2021/11/21 07:05:59;;;;;;;25.60;14.93;;;8.60;99.90;;;7.92;100.00;101299.38;4105898;28;20039;-76
2021/11/21 07:08:01;;;;;;;19.05;12.93;;;8.60;99.90;;;7.94;100.00;101304.53;4104785;29;20042;-75
2021/11/21 07:10:04;;;;;;;21.20;14.27;;;8.60;99.90;;;8.01;100.00;101297.78;4105695;28;20043;-75
2021/11/21 07:12:06;;;;;;;19.73;13.25;;;8.70;99.90;;;8.11;100.00;101291.66;4105473;28;20027;-75
2021/11/21 07:14:11;;;;;;;22.60;12.85;;;8.70;99.90;;;8.19;100.00;101291.00;4105697;28;20483;-75
2021/11/21 07:16:11;;;;;;;23.48;13.88;;;8.70;99.90;;;8.23;100.00;101297.69;4104749;29;20407;-74
2021/11/21 07:18:12;;;;;;;22.23;13.30;;;8.80;99.90;;;8.27;100.00;101297.34;4105667;28;20042;-76
2021/11/21 07:20:17;;;;;;;17.67;12.55;;;8.80;99.90;;;8.30;100.00;101298.91;4105744;28;20019;-76
2021/11/21 07:22:20;;;;;;;16.38;11.77;;;8.80;99.90;;;8.43;100.00;101296.06;4104489;29;20102;-75
2021/11/21 07:24:21;;;;;;;19.58;12.52;;;8.90;99.90;;;8.39;100.00;101292.03;4105572;28;20055;-76
2021/11/21 07:26:22;;;;;;;21.33;13.23;;;8.90;99.90;;;8.31;100.00;101290.03;4104515;29;20039;-76
2021/11/21 07:28:22;;;;;;;19.67;12.75;;;8.90;99.90;;;8.41;100.00;101303.25;4105590;28;20407;-76
2021/11/21 07:30:25;;;;;;;20.90;11.82;;;8.90;99.90;;;8.37;100.00;101294.78;4105666;28;20062;-76
2021/11/21 07:32:26;;;;;;;17.15;12.48;;;8.90;99.90;;;8.32;100.00;101284.66;4104478;29;20478;-76
2021/11/21 07:34:28;;;;;;;17.50;11.32;;;8.90;99.90;;;8.37;100.00;101300.03;4105213;28;20039;-76
2021/11/21 07:36:29;;;;;;;17.15;11.75;;;8.90;99.90;;;8.24;100.00;101294.91;4104086;29;20533;-76
2021/11/21 07:38:30;;;;;;;19.70;12.95;;;8.80;99.90;;;8.34;100.00;101301.13;4104191;29;20093;-76
2021/11/21 07:40:31;;;;;;;20.90;14.45;;;8.90;99.90;;;8.39;100.00;101292.88;4104124;29;20023;-76
2021/11/21 07:42:32;;;;;;;19.05;12.43;;;8.80;99.90;;;8.31;100.00;101290.03;4105435;28;20114;-75
2021/11/21 07:44:33;;;;;;;18.73;13.63;;;8.80;99.90;;;8.36;100.00;101287.88;4105445;28;20088;-76
2021/11/21 07:46:34;;;;;;;17.92;11.18;;;8.80;99.90;;;8.41;100.00;101297.97;4103815;28;20063;-75
2021/11/21 07:48:35;;;;;;;17.38;11.18;;;8.80;99.90;;;8.03;100.00;101291.47;4105345;28;20031;-75
2021/11/21 07:50:37;;;;;;;19.15;12.20;;;8.80;99.90;;;8.00;100.00;101291.72;4104132;29;20042;-75
2021/11/21 07:52:37;;;;;;;15.80;10.82;;;8.70;99.90;;;7.94;100.00;101294.00;4104029;29;20039;-75
2021/11/21 07:54:40;;;;;;;15.77;10.20;;;8.60;99.90;;;8.03;100.00;101293.25;4103719;29;20578;-75
2021/11/21 07:56:42;;;;;;;17.00;11.07;;;8.50;99.90;;;8.13;100.00;101294.16;4105419;28;20028;-75
2021/11/21 07:58:42;;;;;;;16.73;10.75;;;8.50;99.90;;;7.99;100.00;101286.56;4104034;29;20039;-76
2021/11/21 08:00:43;;;;;;;15.13;10.75;;;8.50;99.90;;;7.86;100.00;101294.63;4103860;29;20019;-76
2021/11/21 08:02:44;;;;;;;15.68;10.68;;;8.40;99.90;;;7.82;100.00;101288.78;4103719;29;20119;-75
2021/11/21 08:04:45;;;;;;;13.88;10.20;;;8.40;99.90;;;7.90;100.00;101288.16;4103838;28;20089;-75
2021/11/21 08:06:46;;;;;;;17.52;10.60;;;8.50;99.90;;;7.86;100.00;101284.13;4105365;29;20098;-75
2021/11/21 08:08:47;;;;;;;18.17;11.07;;;8.50;99.90;;;7.85;100.00;101279.00;4105831;28;20035;-76
2021/11/21 08:10:48;;;;;;;15.13;9.95;;;8.50;99.90;;;7.91;100.00;101284.59;4105569;28;20037;-75
2021/11/21 08:12:49;;;;;;;14.73;9.88;;;8.50;99.90;;;7.90;100.00;101287.34;4106024;29;20106;-75
2021/11/21 08:14:50;;;;;;;13.82;10.13;;;8.50;99.90;;;7.90;100.00;101280.28;4103337;28;20019;-75
2021/11/21 08:16:51;;;;;;;15.10;10.75;;;8.60;99.90;;;7.98;100.00;101282.28;4111981;28;20403;-74
2021/11/21 08:18:53;;;;;;;14.05;10.10;;;8.60;99.90;;;8.01;100.00;101271.50;4105168;28;20034;-74
2021/11/21 08:20:54;;;;;;;14.07;10.43;;;8.60;99.90;;;8.08;100.00;101270.91;4104309;29;20452;-75
2021/11/21 08:22:55;;;;;;;12.25;9.35;;;8.80;99.90;;;8.10;100.00;101283.88;4105159;28;20027;-74